Time;durP1;ratioP1;P1;durP2;ratioP2;P2;SDS_P1;SDS_P2;PMS_P1;PMS_P2;Temp;Humidity;BMP_temperature;BMP_pressure;BME280_temperature;BME280_humidity;BME280_pressure;Samples;Min_cycle;Max_cycle;Signal;HPM_P1;HPM_P2
2022/01/30 00:00:31;;;;;;;72.05;32.28;;;;;;;;;;5090041;28;20384;-80
2022/01/30 00:02:57;;;;;;;104.90;46.63;;;;;;;;;;5079031;28;20077;-79
2022/01/30 00:05:23;;;;;;;104.57;45.40;;;;;;;;;;5079986;28;20032;-79
2022/01/30 00:07:49;;;;;;;87.88;40.38;;;;;;;;;;5078430;28;20161;-80
2022/01/30 00:10:16;;;;;;;62.85;30.20;;;;;;;;;;5070716;28;20738;-80
2022/01/30 00:12:55;;;;;;;49.17;23.92;;;;;;;;;;5085933;28;20470;-80
2022/01/30 00:15:36;;;;;;;44.15;20.35;;;;;;;;;;5090227;28;20115;-80
2022/01/30 00:20:45;;;;;;;35.65;15.85;;;;;;;;;;5090275;28;20039;-79
2022/01/30 00:23:31;;;;;;;35.25;17.45;;;;;;;;;;5070202;28;20879;-80
2022/01/30 00:25:58;;;;;;;52.50;25.75;;;;;;;;;;5082658;28;20028;-80
2022/01/30 00:28:26;;;;;;;82.45;34.67;;;;;;;;;;5089460;28;20061;-80
2022/01/30 00:30:55;;;;;;;72.70;34.33;;;;;;;;;;5089833;28;20463;-80
2022/01/30 00:33:21;;;;;;;66.93;32.47;;;;;;;;;;5089114;28;20039;-80
2022/01/30 00:35:47;;;;;;;42.80;19.92;;;;;;;;;;5089602;28;20037;-80
2022/01/30 00:38:19;;;;;;;40.33;20.73;;;;;;;;;;5077330;28;20037;-80
2022/01/30 00:40:46;;;;;;;33.80;14.98;;;;;;;;;;5069984;28;20035;-80
2022/01/30 00:43:12;;;;;;;32.78;15.57;;;;;;;;;;5076752;28;20036;-80
2022/01/30 00:45:38;;;;;;;32.28;13.85;;;;;;;;;;5090232;28;20032;-80
2022/01/30 00:48:04;;;;;;;27.45;11.88;;;;;;;;;;5089768;28;20614;-80
2022/01/30 00:50:31;;;;;;;30.35;11.85;;;;;;;;;;5093582;28;20158;-80
2022/01/30 00:52:57;;;;;;;27.00;10.95;;;;;;;;;;5093514;28;20036;-80
2022/01/30 00:55:24;;;;;;;21.33;9.60;;;;;;;;;;5092811;28;20043;-80
2022/01/30 00:57:50;;;;;;;57.78;22.70;;;;;;;;;;5093320;28;20038;-81
2022/01/30 01:00:17;;;;;;;59.50;23.85;;;;;;;;;;5091993;28;20070;-80
2022/01/30 01:02:43;;;;;;;77.82;33.55;;;;;;;;;;5072809;28;20045;-80
2022/01/30 01:05:10;;;;;;;56.00;25.83;;;;;;;;;;5072532;28;20032;-80
2022/01/30 01:07:41;;;;;;;36.65;15.98;;;;;;;;;;5091659;28;20103;-80
2022/01/30 01:10:12;;;;;;;34.70;16.40;;;;;;;;;;5092975;28;20023;-80
2022/01/30 01:23:43;;;;;;;36.72;17.52;;;;;;;;;;5068250;28;20047;-80
2022/01/30 01:26:09;;;;;;;37.88;17.60;;;;;;;;;;5091249;28;20024;-80
2022/01/30 01:28:35;;;;;;;36.33;18.10;;;;;;;;;;5091001;28;20070;-80
2022/01/30 01:31:02;;;;;;;34.47;16.77;;;;;;;;;;5093055;28;20036;-81
2022/01/30 01:33:39;;;;;;;31.88;16.63;;;;;;;;;;5092192;28;20470;-80
2022/01/30 01:36:06;;;;;;;39.40;18.95;;;;;;;;;;5091816;28;20119;-80
2022/01/30 01:38:32;;;;;;;45.13;20.85;;;;;;;;;;5092581;28;20036;-80
2022/01/30 01:40:58;;;;;;;38.60;18.50;;;;;;;;;;5092825;28;20058;-80
2022/01/30 01:43:25;;;;;;;37.28;17.77;;;;;;;;;;5088958;28;20035;-80
2022/01/30 01:45:53;;;;;;;38.67;18.65;;;;;;;;;;5091165;28;20028;-81
2022/01/30 01:48:19;;;;;;;34.90;18.17;;;;;;;;;;5083611;28;20036;-80
2022/01/30 01:50:52;;;;;;;32.17;16.33;;;;;;;;;;5071497;28;20131;-81
2022/01/30 01:53:20;;;;;;;26.63;13.10;;;;;;;;;;5076836;28;20031;-79
2022/01/30 01:55:46;;;;;;;23.15;11.77;;;;;;;;;;5092747;28;20039;-80
2022/01/30 01:58:12;;;;;;;25.05;11.50;;;;;;;;;;5102235;28;20044;-81
2022/01/30 02:00:38;;;;;;;27.83;12.55;;;;;;;;;;5092167;28;20047;-81
2022/01/30 02:03:05;;;;;;;33.90;15.48;;;;;;;;;;5091840;28;20035;-80
2022/01/30 02:05:34;;;;;;;30.92;13.63;;;;;;;;;;5089451;28;20871;-81
2022/01/30 02:10:49;;;;;;;31.95;14.85;;;;;;;;;;5072486;28;20036;-81
2022/01/30 02:27:20;;;;;;;29.75;13.55;;;;;;;;;;5067639;28;20020;-80
2022/01/30 02:29:46;;;;;;;33.10;14.80;;;;;;;;;;5090919;28;20043;-81
2022/01/30 02:32:12;;;;;;;27.52;15.00;;;;;;;;;;5091701;28;20027;-81
2022/01/30 02:34:38;;;;;;;25.15;12.88;;;;;;;;;;5090601;28;20102;-81
2022/01/30 02:37:05;;;;;;;27.85;13.75;;;;;;;;;;5087494;28;20028;-80
2022/01/30 02:39:32;;;;;;;29.58;15.70;;;;;;;;;;5082789;28;20048;-80
2022/01/30 02:41:58;;;;;;;45.63;20.40;;;;;;;;;;5070857;28;20033;-81
2022/01/30 02:46:53;;;;;;;131.07;51.05;;;;;;;;;;5092240;28;20463;-80
2022/01/30 02:52:02;;;;;;;106.78;45.78;;;;;;;;;;5091692;28;20036;-80
2022/01/30 02:54:29;;;;;;;84.10;36.30;;;;;;;;;;5103756;28;20074;-80
2022/01/30 02:56:56;;;;;;;57.30;26.23;;;;;;;;;;5090020;28;20049;-81
2022/01/30 02:59:39;;;;;;;44.90;19.33;;;;;;;;;;5093855;22;20071;-81
2022/01/30 03:02:21;;;;;;;36.60;15.73;;;;;;;;;;5045126;28;20052;-81
2022/01/30 03:05:07;;;;;;;27.50;12.80;;;;;;;;;;5049117;28;20048;-81
2022/01/30 03:07:33;;;;;;;35.15;18.83;;;;;;;;;;5066032;28;20725;-82
2022/01/30 03:10:03;;;;;;;40.60;20.48;;;;;;;;;;5049162;28;20021;-82
2022/01/30 03:12:32;;;;;;;64.43;27.00;;;;;;;;;;5050315;28;20029;-82
2022/01/30 03:15:03;;;;;;;53.88;23.35;;;;;;;;;;5066242;28;20044;-82
2022/01/30 03:17:40;;;;;;;34.60;15.97;;;;;;;;;;5066072;28;20051;-82
2022/01/30 03:20:16;;;;;;;27.63;13.45;;;;;;;;;;5051142;28;20360;-82
2022/01/30 03:22:50;;;;;;;33.03;14.45;;;;;;;;;;5046339;28;20062;-82
2022/01/30 03:25:25;;;;;;;22.23;11.30;;;;;;;;;;5031144;28;20033;-82
2022/01/30 03:27:54;;;;;;;22.25;10.13;;;;;;;;;;5050379;28;20041;-82
2022/01/30 03:30:29;;;;;;;18.48;8.80;;;;;;;;;;5051313;28;20388;-82
2022/01/30 03:33:01;;;;;;;18.77;10.15;;;;;;;;;;5055940;28;20037;-82
2022/01/30 03:45:05;;;;;;;27.08;13.65;;;;;;;;;;4993180;28;20315;-81
2022/01/30 03:47:37;;;;;;;28.60;13.75;;;;;;;;;;4990584;28;20031;-81
2022/01/30 03:50:25;;;;;;;29.48;15.50;;;;;;;;;;4991556;28;20502;-81
2022/01/30 03:53:05;;;;;;;29.73;13.95;;;;;;;;;;4990436;28;20049;-81
2022/01/30 03:58:22;;;;;;;30.08;12.20;;;;;;;;;;5050466;28;20044;-81
2022/01/30 04:01:05;;;;;;;24.08;11.93;;;;;;;;;;5052045;28;20108;-81
2022/01/30 04:03:36;;;;;;;24.60;12.05;;;;;;;;;;5068632;28;20040;-81
2022/01/30 04:06:13;;;;;;;22.48;11.15;;;;;;;;;;5081512;28;20079;-81
2022/01/30 04:08:56;;;;;;;22.20;11.57;;;;;;;;;;5077244;28;20438;-81
2022/01/30 04:12:07;;;;;;;22.92;12.10;;;;;;;;;;5078730;28;20036;-81
2022/01/30 04:14:42;;;;;;;22.30;10.65;;;;;;;;;;5067858;28;20056;-81
2022/01/30 04:17:13;;;;;;;24.15;11.98;;;;;;;;;;5069911;28;20021;-82
2022/01/30 04:19:42;;;;;;;40.38;17.63;;;;;;;;;;5068602;28;20041;-82
2022/01/30 04:22:16;;;;;;;31.58;15.75;;;;;;;;;;5068364;28;20132;-82
2022/01/30 04:24:42;;;;;;;34.60;15.90;;;;;;;;;;5050981;28;20679;-82
2022/01/30 04:27:11;;;;;;;36.25;17.88;;;;;;;;;;5066960;28;20032;-82
2022/01/30 04:29:45;;;;;;;31.48;15.43;;;;;;;;;;5085087;28;20052;-81
2022/01/30 04:32:15;;;;;;;29.75;15.07;;;;;;;;;;5070180;28;20389;-81
2022/01/30 04:34:43;;;;;;;23.15;12.98;;;;;;;;;;5067428;28;20094;-80
2022/01/30 04:37:23;;;;;;;29.33;12.65;;;;;;;;;;5068062;28;20024;-81
2022/01/30 04:54:47;;;;;;;35.40;16.23;;;;;;;;;;5069459;28;20046;-81
2022/01/30 05:07:41;;;;;;;25.77;11.55;;;;;;;;;;5068524;28;20024;-81
2022/01/30 05:10:08;;;;;;;18.80;10.23;;;;;;;;;;5085379;28;20039;-81
2022/01/30 05:12:45;;;;;;;18.60;10.02;;;;;;;;;;5078493;28;20051;-81
2022/01/30 05:15:11;;;;;;;22.27;11.65;;;;;;;;;;5050491;28;20041;-81
2022/01/30 05:17:38;;;;;;;22.40;11.32;;;;;;;;;;5060049;28;20078;-82
2022/01/30 05:20:04;;;;;;;24.85;12.82;;;;;;;;;;5069372;28;20046;-81
2022/01/30 05:22:30;;;;;;;24.35;11.85;;;;;;;;;;5064933;28;20032;-82
2022/01/30 05:24:56;;;;;;;25.10;11.75;;;;;;;;;;5058719;28;20478;-82
2022/01/30 05:27:22;;;;;;;27.20;12.15;;;;;;;;;;5061439;28;20128;-81
2022/01/30 05:29:48;;;;;;;28.42;12.85;;;;;;;;;;5069537;28;20139;-81
2022/01/30 05:32:15;;;;;;;24.65;12.98;;;;;;;;;;5050173;28;20033;-81
2022/01/30 05:34:41;;;;;;;26.40;14.60;;;;;;;;;;5069706;28;20871;-81
2022/01/30 05:37:09;;;;;;;24.35;13.40;;;;;;;;;;5088243;28;20074;-81
2022/01/30 05:39:35;;;;;;;31.27;15.30;;;;;;;;;;5066289;28;20074;-81
2022/01/30 05:42:02;;;;;;;26.73;14.85;;;;;;;;;;5078869;28;20035;-81
2022/01/30 05:44:42;;;;;;;25.30;13.70;;;;;;;;;;5071364;28;20033;-81
2022/01/30 05:47:13;;;;;;;29.70;14.20;;;;;;;;;;5051145;28;20044;-81
2022/01/30 05:49:39;;;;;;;26.67;14.40;;;;;;;;;;5056361;28;20056;-81
2022/01/30 05:52:05;;;;;;;26.75;13.23;;;;;;;;;;5071321;28;20037;-80
2022/01/30 05:54:31;;;;;;;28.25;12.75;;;;;;;;;;5071961;28;20089;-81
2022/01/30 05:56:57;;;;;;;23.52;12.00;;;;;;;;;;5070899;28;20166;-81
2022/01/30 05:59:23;;;;;;;26.05;12.63;;;;;;;;;;5086564;28;20033;-81
2022/01/30 06:01:49;;;;;;;26.83;12.07;;;;;;;;;;5070291;28;20095;-81
2022/01/30 06:04:15;;;;;;;22.85;12.35;;;;;;;;;;5071947;28;20028;-80
2022/01/30 06:06:49;;;;;;;23.83;12.38;;;;;;;;;;5072115;28;20040;-82
2022/01/30 06:11:44;;;;;;;23.67;11.38;;;;;;;;;;5072524;28;20068;-81
2022/01/30 06:14:10;;;;;;;26.17;14.45;;;;;;;;;;5086190;28;20487;-81
2022/01/30 06:16:36;;;;;;;41.10;19.45;;;;;;;;;;5086278;28;20642;-81
2022/01/30 06:19:02;;;;;;;27.92;13.90;;;;;;;;;;5070883;28;20064;-81
2022/01/30 06:21:29;;;;;;;28.48;15.48;;;;;;;;;;5070321;28;20906;-81
2022/01/30 06:23:55;;;;;;;34.00;17.77;;;;;;;;;;5070769;28;20587;-81
2022/01/30 06:26:21;;;;;;;31.67;17.85;;;;;;;;;;5070020;28;20036;-81
2022/01/30 06:28:47;;;;;;;30.65;15.98;;;;;;;;;;5058938;28;20039;-81
2022/01/30 06:31:13;;;;;;;33.67;16.98;;;;;;;;;;5069348;28;20037;-82
2022/01/30 06:33:39;;;;;;;32.75;15.13;;;;;;;;;;5068901;28;20024;-81
2022/01/30 06:36:05;;;;;;;23.98;13.93;;;;;;;;;;5080872;28;20029;-82
2022/01/30 06:38:31;;;;;;;29.55;15.52;;;;;;;;;;5069540;28;20048;-81
2022/01/30 06:40:57;;;;;;;29.45;15.90;;;;;;;;;;5066830;28;20386;-81
2022/01/30 06:43:23;;;;;;;26.27;13.90;;;;;;;;;;5064291;28;20040;-82
2022/01/30 06:45:49;;;;;;;27.67;15.02;;;;;;;;;;5068514;28;20421;-82
2022/01/30 06:48:19;;;;;;;27.50;14.13;;;;;;;;;;5071816;28;20043;-81
2022/01/30 06:57:00;;;;;;;29.35;15.05;;;;;;;;;;5040852;28;20491;-81
2022/01/30 06:59:29;;;;;;;27.00;13.63;;;;;;;;;;5049640;28;20107;-82
2022/01/30 07:01:55;;;;;;;32.17;15.23;;;;;;;;;;5030081;28;20079;-82
2022/01/30 07:04:27;;;;;;;26.42;15.73;;;;;;;;;;5043501;28;20112;-82
2022/01/30 07:06:55;;;;;;;;;;;;;;;;;;5055293;28;20048;-83
2022/01/30 07:09:50;;;;;;;28.67;14.70;;;;;;;;;;5048148;28;19999;-83
2022/01/30 08:47:54;;;;;;;34.13;20.08;;;;;;;;;;5937160;23;20050;-83
2022/01/30 11:40:50;;;;;;;;;;;;;;;;;;;;;
2022/01/30 13:41:24;;;;;;;6.70;3.72;;;;;;;;;;4984098;28;20049;-79
2022/01/30 16:59:35;;;;;;;24.83;13.40;;;;;;;;;;2153171;23;20054;-79
2022/01/30 17:02:01;;;;;;;26.77;14.10;;;;;;;;;;5009256;28;20026;-80
2022/01/30 17:04:39;;;;;;;25.50;15.15;;;;;;;;;;5009798;28;20030;-80
2022/01/30 17:07:28;;;;;;;21.42;13.00;;;;;;;;;;4891392;29;20036;-80
2022/01/30 17:10:08;;;;;;;24.23;15.27;;;;;;;;;;4891699;29;20495;-81
2022/01/30 17:12:45;;;;;;;38.90;25.33;;;;;;;;;;4969429;28;20486;-79
2022/01/30 17:15:11;;;;;;;35.40;21.95;;;;;;;;;;4990265;28;20125;-80
2022/01/30 17:17:38;;;;;;;52.17;19.77;;;;;;;;;;4991427;28;20492;-80
2022/01/30 17:20:04;;;;;;;56.75;19.17;;;;;;;;;;5022794;28;20033;-81
2022/01/30 17:22:30;;;;;;;59.55;19.50;;;;;;;;;;4992968;28;20370;-82
2022/01/30 17:24:56;;;;;;;43.35;18.15;;;;;;;;;;5009631;28;20040;-80
2022/01/30 17:27:23;;;;;;;48.17;18.67;;;;;;;;;;5009796;28;20866;-81
2022/01/30 17:29:49;;;;;;;37.20;17.35;;;;;;;;;;4987576;28;20069;-81
2022/01/30 17:32:15;;;;;;;40.47;18.30;;;;;;;;;;5007846;28;20042;-81
2022/01/30 17:34:41;;;;;;;36.17;19.40;;;;;;;;;;4992909;28;20093;-81
2022/01/30 17:37:07;;;;;;;38.83;19.30;;;;;;;;;;4994704;28;20057;-80
2022/01/30 17:39:34;;;;;;;46.00;20.77;;;;;;;;;;5012759;28;20117;-80
2022/01/30 17:42:01;;;;;;;41.92;20.60;;;;;;;;;;5012829;28;20033;-81
2022/01/30 17:44:27;;;;;;;48.42;23.30;;;;;;;;;;5012783;28;20065;-80
2022/01/30 17:46:53;;;;;;;50.03;26.02;;;;;;;;;;4995183;28;20392;-81
2022/01/30 17:49:19;;;;;;;45.65;24.30;;;;;;;;;;5010685;28;20680;-80
2022/01/30 17:51:45;;;;;;;42.25;27.20;;;;;;;;;;4995386;28;20489;-81
2022/01/30 17:54:11;;;;;;;41.83;24.10;;;;;;;;;;4994738;28;20072;-81
2022/01/30 17:56:37;;;;;;;41.70;23.10;;;;;;;;;;5013293;28;20025;-81
2022/01/30 17:59:04;;;;;;;41.00;23.23;;;;;;;;;;4991404;28;20124;-81
2022/01/30 18:01:30;;;;;;;35.47;20.75;;;;;;;;;;5004664;28;20060;-80
2022/01/30 18:03:56;;;;;;;38.63;20.90;;;;;;;;;;4976542;28;20066;-80
2022/01/30 18:06:22;;;;;;;41.65;21.02;;;;;;;;;;4994601;28;20033;-81
2022/01/30 18:08:51;;;;;;;41.28;21.02;;;;;;;;;;5010575;28;20042;-81
2022/01/30 18:11:17;;;;;;;50.28;23.85;;;;;;;;;;4992031;28;20022;-80
2022/01/30 18:13:44;;;;;;;53.20;22.73;;;;;;;;;;4991699;28;20840;-81
2022/01/30 18:16:11;;;;;;;53.22;23.20;;;;;;;;;;4997745;28;20034;-81
2022/01/30 18:18:37;;;;;;;51.38;22.48;;;;;;;;;;5005217;28;20073;-80
2022/01/30 18:21:03;;;;;;;55.30;22.77;;;;;;;;;;5010487;28;20030;-80
2022/01/30 18:23:29;;;;;;;55.53;21.60;;;;;;;;;;4994195;28;20076;-81
2022/01/30 18:25:56;;;;;;;51.65;23.50;;;;;;;;;;5011924;28;20403;-81
2022/01/30 18:28:22;;;;;;;50.50;22.55;;;;;;;;;;4991474;28;20034;-81
2022/01/30 18:30:48;;;;;;;38.55;21.55;;;;;;;;;;5001344;28;20433;-81
